Time;durP1;ratioP1;P1;durP2;ratioP2;P2;SDS_P1;SDS_P2;PMS_P1;PMS_P2;Temp;Humidity;BMP_temperature;BMP_pressure;BME280_temperature;BME280_humidity;BME280_pressure;Samples;Min_cycle;Max_cycle;Signal;HPM_P1;HPM_P2
2023/06/05 00:00:10;;;;;;;3.90;2.80;;;15.90;99.90;;;;;;5093071;28;20991;-50
2023/06/05 00:02:37;;;;;;;3.97;2.53;;;15.90;99.90;;;;;;5092855;28;20490;-51
2023/06/05 00:05:08;;;;;;;4.63;2.87;;;15.90;99.90;;;;;;5092630;28;20943;-49
2023/06/05 00:07:37;;;;;;;3.33;2.00;;;15.90;99.90;;;;;;5092633;28;20479;-49
2023/06/05 00:10:05;;;;;;;4.07;2.33;;;15.80;99.90;;;;;;5092967;28;20440;-49
2023/06/05 00:12:33;;;;;;;2.97;2.27;;;15.80;99.90;;;;;;5092682;28;20500;-48
2023/06/05 00:15:01;;;;;;;3.83;2.43;;;15.80;99.90;;;;;;5092572;28;20484;-52
2023/06/05 00:17:30;;;;;;;4.90;2.20;;;15.80;99.90;;;;;;5092483;28;20443;-49
2023/06/05 00:19:58;;;;;;;4.33;2.43;;;15.70;99.90;;;;;;5093017;28;20527;-49
2023/06/05 00:22:25;;;;;;;5.73;2.67;;;15.70;99.90;;;;;;5092794;28;20460;-49
2023/06/05 00:24:52;;;;;;;3.00;2.23;;;15.70;99.90;;;;;;5092258;28;20865;-51
2023/06/05 00:27:19;;;;;;;3.60;2.27;;;15.60;99.90;;;;;;5090319;28;20444;-49
2023/06/05 00:29:47;;;;;;;3.43;2.13;;;15.60;99.90;;;;;;5092840;28;20484;-49
2023/06/05 00:32:14;;;;;;;4.20;2.80;;;15.50;99.90;;;;;;5092486;28;20500;-52
2023/06/05 00:34:41;;;;;;;3.63;2.30;;;15.50;99.90;;;;;;5092147;28;20526;-49
2023/06/05 00:37:08;;;;;;;4.23;2.60;;;15.60;99.90;;;;;;5090032;28;20443;-52
2023/06/05 00:39:35;;;;;;;3.73;2.03;;;15.60;99.90;;;;;;5092400;28;20445;-49
2023/06/05 00:42:02;;;;;;;5.23;2.40;;;15.60;99.90;;;;;;5091766;28;20950;-49
2023/06/05 00:44:29;;;;;;;3.20;2.20;;;15.50;99.90;;;;;;5091896;28;20528;-49
2023/06/05 00:46:57;;;;;;;3.30;2.13;;;15.50;99.90;;;;;;5092051;28;20551;-48
2023/06/05 00:49:25;;;;;;;3.77;1.97;;;15.50;99.90;;;;;;5091926;28;20562;-50
2023/06/05 00:51:52;;;;;;;3.67;2.50;;;15.40;99.90;;;;;;5091877;28;20811;-48
2023/06/05 00:54:20;;;;;;;3.77;2.53;;;15.30;99.90;;;;;;5089641;28;20469;-51
2023/06/05 00:56:48;;;;;;;4.13;2.60;;;15.20;99.90;;;;;;5091764;28;20448;-49
2023/06/05 00:59:16;;;;;;;4.33;2.10;;;15.20;99.90;;;;;;5091908;28;20808;-49
2023/06/05 01:01:45;;;;;;;4.43;2.47;;;15.20;99.90;;;;;;5091987;28;20451;-51
2023/06/05 01:04:13;;;;;;;2.77;2.00;;;15.20;99.90;;;;;;5091304;28;20447;-52
2023/06/05 01:06:41;;;;;;;4.20;2.00;;;15.30;99.90;;;;;;5091597;28;20519;-49
2023/06/05 01:09:10;;;;;;;4.90;2.40;;;15.30;99.90;;;;;;5091932;28;20822;-48
2023/06/05 01:11:44;;;;;;;4.37;2.57;;;15.30;99.90;;;;;;5091730;28;20934;-49
2023/06/05 01:14:20;;;;;;;3.17;2.17;;;15.30;99.90;;;;;;5091324;28;20464;-53
2023/06/05 01:16:53;;;;;;;3.70;2.53;;;15.30;99.90;;;;;;5091120;28;20493;-49
2023/06/05 01:19:24;;;;;;;3.23;2.10;;;15.30;99.90;;;;;;5091865;28;21021;-54
2023/06/05 01:21:51;;;;;;;3.63;1.97;;;15.30;99.90;;;;;;5091666;28;20439;-50
2023/06/05 01:24:21;;;;;;;3.80;2.47;;;15.40;99.90;;;;;;5091368;28;20440;-52
2023/06/05 01:27:00;;;;;;;3.43;2.67;;;15.30;99.90;;;;;;5089751;28;20446;-53
2023/06/05 01:29:33;;;;;;;8.10;3.83;;;15.40;99.90;;;;;;5091417;28;21010;-51
2023/06/05 01:32:06;;;;;;;3.80;2.07;;;15.40;99.90;;;;;;5091434;28;20508;-49
2023/06/05 01:34:35;;;;;;;5.03;2.70;;;15.30;99.90;;;;;;5091008;28;20443;-51
2023/06/05 01:37:03;;;;;;;3.90;1.80;;;15.30;99.90;;;;;;5088783;28;20469;-49
2023/06/05 01:39:32;;;;;;;3.07;2.07;;;15.30;99.90;;;;;;5091216;28;20535;-49
2023/06/05 01:41:59;;;;;;;4.60;2.53;;;15.30;99.90;;;;;;5091476;28;20524;-51
2023/06/05 01:44:28;;;;;;;3.37;2.43;;;15.30;99.90;;;;;;5090932;28;20469;-49
2023/06/05 01:46:55;;;;;;;2.90;1.97;;;15.30;99.90;;;;;;5091160;28;20439;-48
2023/06/05 01:49:22;;;;;;;2.70;1.70;;;15.30;99.90;;;;;;5089979;28;20605;-49
2023/06/05 01:51:49;;;;;;;5.70;2.53;;;15.30;99.90;;;;;;5091575;28;20695;-50
2023/06/05 01:54:18;;;;;;;5.07;3.37;;;15.30;99.90;;;;;;5088212;28;20498;-49
2023/06/05 01:56:47;;;;;;;4.47;2.37;;;15.20;99.90;;;;;;5091219;28;20855;-49
2023/06/05 01:59:15;;;;;;;4.23;2.57;;;15.10;99.90;;;;;;5091061;28;20487;-51
2023/06/05 02:01:43;;;;;;;4.20;2.80;;;14.90;99.90;;;;;;5091374;28;20440;-49
2023/06/05 02:04:11;;;;;;;4.03;2.77;;;14.90;99.90;;;;;;5090712;28;20460;-50
2023/06/05 02:06:43;;;;;;;3.10;2.13;;;15.00;99.90;;;;;;5090591;28;20951;-49
2023/06/05 02:09:12;;;;;;;4.67;2.40;;;15.00;99.90;;;;;;5089695;28;20476;-49
2023/06/05 02:11:42;;;;;;;3.73;2.70;;;15.00;99.90;;;;;;5089519;28;20448;-50
2023/06/05 02:14:13;;;;;;;5.20;2.57;;;14.80;99.90;;;;;;5089055;28;20990;-50
2023/06/05 02:16:40;;;;;;;4.00;2.20;;;14.90;99.90;;;;;;5088893;28;20940;-49
2023/06/05 02:19:07;;;;;;;2.93;2.33;;;14.80;99.90;;;;;;5089434;28;20479;-49
2023/06/05 02:21:35;;;;;;;4.27;2.10;;;14.80;99.90;;;;;;5089282;28;20528;-51
2023/06/05 02:24:02;;;;;;;3.87;2.50;;;14.80;99.90;;;;;;5090321;28;20503;-49
2023/06/05 02:26:29;;;;;;;3.40;2.10;;;14.80;99.90;;;;;;5090670;28;20467;-49
2023/06/05 02:28:56;;;;;;;3.70;2.57;;;14.70;99.90;;;;;;5088933;28;20497;-49
2023/06/05 02:31:25;;;;;;;3.90;2.63;;;14.70;99.90;;;;;;5090696;28;20441;-51
2023/06/05 02:33:53;;;;;;;3.50;2.63;;;14.60;99.90;;;;;;5090333;28;20882;-49
2023/06/05 02:36:20;;;;;;;3.50;2.33;;;14.70;99.90;;;;;;5088688;28;20451;-51
2023/06/05 02:38:49;;;;;;;3.50;2.20;;;14.60;99.90;;;;;;5090926;28;20436;-48
2023/06/05 02:41:17;;;;;;;8.40;2.63;;;14.70;99.90;;;;;;5090943;28;20516;-49
2023/06/05 02:43:44;;;;;;;4.10;2.77;;;14.70;99.90;;;;;;5091155;28;20464;-48
2023/06/05 02:46:11;;;;;;;3.73;2.00;;;14.70;99.90;;;;;;5090714;28;20518;-49
2023/06/05 02:48:39;;;;;;;2.80;2.03;;;14.70;99.90;;;;;;5089339;28;20568;-54
2023/06/05 02:51:09;;;;;;;3.33;2.20;;;14.80;99.90;;;;;;5090569;28;20528;-52
2023/06/05 02:53:36;;;;;;;3.17;2.07;;;14.80;99.90;;;;;;5089594;28;20464;-54
2023/06/05 02:56:03;;;;;;;3.10;2.10;;;14.80;99.90;;;;;;5089359;28;20944;-49
2023/06/05 02:58:31;;;;;;;3.47;2.60;;;14.80;99.90;;;;;;5090621;28;20465;-49
2023/06/05 03:01:01;;;;;;;5.13;2.40;;;14.80;99.90;;;;;;5090125;28;20492;-48
2023/06/05 03:03:29;;;;;;;3.47;2.27;;;14.90;99.90;;;;;;5090129;28;20465;-48
2023/06/05 03:06:01;;;;;;;4.20;2.07;;;14.80;99.90;;;;;;5092192;28;20472;-49
2023/06/05 03:08:28;;;;;;;3.13;2.13;;;14.80;99.90;;;;;;5093492;28;20805;-50
2023/06/05 03:10:55;;;;;;;5.17;3.10;;;14.70;99.90;;;;;;5094337;28;20449;-52
2023/06/05 03:13:22;;;;;;;8.43;2.53;;;14.60;99.90;;;;;;5093848;28;20491;-52
2023/06/05 03:15:53;;;;;;;5.73;2.63;;;14.40;99.90;;;;;;5093914;28;21216;-48
2023/06/05 03:18:20;;;;;;;4.93;2.30;;;14.40;99.90;;;;;;5093572;28;20448;-52
2023/06/05 03:20:47;;;;;;;3.50;2.40;;;14.40;99.90;;;;;;5093887;28;20448;-49
2023/06/05 03:23:16;;;;;;;4.20;2.10;;;14.40;99.90;;;;;;5093810;28;20549;-49
2023/06/05 03:25:43;;;;;;;3.50;2.43;;;14.40;99.90;;;;;;5094179;28;20443;-49
2023/06/05 03:28:10;;;;;;;3.87;2.87;;;14.40;99.90;;;;;;5091483;28;20447;-53
2023/06/05 03:30:37;;;;;;;5.53;2.93;;;14.40;99.90;;;;;;5093540;28;20510;-48
2023/06/05 03:33:04;;;;;;;4.90;3.13;;;14.40;99.90;;;;;;5093175;28;20552;-50
2023/06/05 03:35:32;;;;;;;5.70;2.77;;;14.50;99.90;;;;;;5093564;28;20497;-50
2023/06/05 03:37:59;;;;;;;4.10;3.00;;;14.50;99.90;;;;;;5091581;28;20532;-49
2023/06/05 03:40:27;;;;;;;5.93;2.80;;;14.50;99.90;;;;;;5093609;28;20489;-49
2023/06/05 03:42:54;;;;;;;4.00;2.97;;;14.50;99.90;;;;;;5093325;28;20502;-49
2023/06/05 03:45:22;;;;;;;4.00;2.80;;;14.50;99.90;;;;;;5093403;28;20475;-48
2023/06/05 03:47:49;;;;;;;7.03;3.57;;;14.50;99.90;;;;;;5092013;28;20517;-52
2023/06/05 03:50:17;;;;;;;5.13;3.53;;;14.60;99.90;;;;;;5092775;28;20574;-49
2023/06/05 03:52:43;;;;;;;4.77;2.90;;;14.60;99.90;;;;;;5093277;28;20459;-49
2023/06/05 03:55:11;;;;;;;3.27;2.27;;;14.60;99.90;;;;;;5090996;28;20529;-49
2023/06/05 03:57:40;;;;;;;3.80;2.50;;;14.70;99.90;;;;;;5093014;28;20448;-49
2023/06/05 04:00:10;;;;;;;2.80;2.43;;;14.80;99.90;;;;;;5093280;28;20444;-53
2023/06/05 04:02:38;;;;;;;5.03;2.60;;;14.80;99.90;;;;;;5093054;28;20835;-48
2023/06/05 04:05:06;;;;;;;7.03;6.00;;;14.80;99.90;;;;;;5092585;28;20531;-50
2023/06/05 04:07:32;;;;;;;8.73;5.53;;;14.80;99.90;;;;;;5092861;28;20495;-49
2023/06/05 04:09:59;;;;;;;4.77;3.50;;;14.70;99.90;;;;;;5093204;28;20567;-48
2023/06/05 04:12:26;;;;;;;4.17;2.83;;;14.70;99.90;;;;;;5092776;28;20496;-52
2023/06/05 04:14:55;;;;;;;3.87;3.00;;;14.70;99.90;;;;;;5092561;28;20449;-48
2023/06/05 04:17:22;;;;;;;4.83;2.90;;;14.80;99.90;;;;;;5091676;28;20450;-48
2023/06/05 04:19:48;;;;;;;4.60;3.10;;;14.90;99.90;;;;;;5091875;28;20502;-51
2023/06/05 04:22:16;;;;;;;4.80;2.77;;;14.90;99.90;;;;;;5091153;28;21222;-50
2023/06/05 04:24:43;;;;;;;3.60;2.83;;;14.90;99.90;;;;;;5090853;28;20451;-52
2023/06/05 04:27:10;;;;;;;4.27;3.07;;;14.90;99.90;;;;;;5090737;28;20497;-51
2023/06/05 04:29:36;;;;;;;4.90;3.20;;;14.80;99.90;;;;;;5090870;28;21051;-53
2023/06/05 04:32:07;;;;;;;5.20;2.93;;;14.80;99.90;;;;;;5091236;28;20493;-49
2023/06/05 04:34:34;;;;;;;7.93;3.70;;;14.70;99.90;;;;;;5091258;28;20442;-50
2023/06/05 04:37:01;;;;;;;5.80;3.10;;;14.70;99.90;;;;;;5090527;28;20926;-50
2023/06/05 04:39:28;;;;;;;4.50;2.90;;;14.80;99.90;;;;;;5092433;28;20960;-49
2023/06/05 04:41:55;;;;;;;4.83;2.90;;;14.80;99.90;;;;;;5092419;28;20820;-48
2023/06/05 04:44:22;;;;;;;3.70;2.53;;;14.90;99.90;;;;;;5092047;28;20490;-50
2023/06/05 04:46:49;;;;;;;4.67;3.27;;;15.00;99.90;;;;;;5091711;28;20636;-49
2023/06/05 04:49:19;;;;;;;4.77;3.00;;;15.00;99.90;;;;;;5091006;28;20559;-52
2023/06/05 04:51:46;;;;;;;6.73;3.00;;;14.90;99.90;;;;;;5090785;28;20531;-53
2023/06/05 04:54:13;;;;;;;9.90;3.50;;;14.90;99.90;;;;;;5081799;28;20472;-50
2023/06/05 04:56:40;;;;;;;3.90;3.10;;;14.90;99.90;;;;;;5091808;28;20856;-52
2023/06/05 04:59:07;;;;;;;4.50;2.80;;;14.90;99.90;;;;;;5091840;28;20431;-48
2023/06/05 05:01:34;;;;;;;4.07;3.53;;;14.90;99.90;;;;;;5088557;28;20452;-53
2023/06/05 05:04:01;;;;;;;6.87;3.87;;;14.90;99.90;;;;;;5091462;28;20461;-49
2023/06/05 05:06:31;;;;;;;4.27;3.47;;;15.00;99.90;;;;;;5091074;28;20526;-49
2023/06/05 05:08:57;;;;;;;4.40;3.60;;;15.00;99.90;;;;;;5088942;28;20793;-49
2023/06/05 05:11:26;;;;;;;6.90;4.10;;;15.00;99.90;;;;;;5091131;28;20770;-49
2023/06/05 05:13:52;;;;;;;5.50;3.97;;;15.00;99.90;;;;;;5091304;28;20508;-50
2023/06/05 05:16:20;;;;;;;4.43;3.50;;;14.90;99.90;;;;;;5090654;28;20575;-52
2023/06/05 05:18:47;;;;;;;4.37;3.13;;;15.00;99.90;;;;;;5091257;28;20436;-51
2023/06/05 05:21:14;;;;;;;4.63;3.33;;;15.10;99.90;;;;;;5091335;28;20521;-49
2023/06/05 05:23:42;;;;;;;4.00;2.70;;;15.20;99.90;;;;;;5090725;28;20451;-52
2023/06/05 05:26:11;;;;;;;3.80;3.10;;;15.10;99.90;;;;;;5091448;28;20474;-53
2023/06/05 05:28:38;;;;;;;4.13;2.87;;;15.10;99.90;;;;;;5088908;28;20968;-52
2023/06/05 05:31:05;;;;;;;4.83;3.23;;;15.20;99.90;;;;;;5091302;28;20565;-50
2023/06/05 05:33:32;;;;;;;4.53;2.90;;;;;;;;;;5091355;28;20467;-49
2023/06/05 05:35:59;;;;;;;4.33;3.10;;;15.30;99.90;;;;;;5090986;28;21051;-50
2023/06/05 05:38:25;;;;;;;3.83;2.90;;;15.30;99.90;;;;;;5089435;28;20453;-49
2023/06/05 05:40:54;;;;;;;7.00;3.90;;;15.40;99.90;;;;;;5091682;28;20934;-49
2023/06/05 05:43:21;;;;;;;6.93;4.40;;;15.40;99.90;;;;;;5090634;28;20547;-49
2023/06/05 05:45:48;;;;;;;4.80;3.10;;;15.40;99.90;;;;;;5090917;28;20729;-49
2023/06/05 05:48:15;;;;;;;4.03;3.03;;;15.50;99.90;;;;;;5090524;28;20521;-50
2023/06/05 05:50:41;;;;;;;4.73;2.87;;;15.40;99.90;;;;;;5091402;28;20919;-49
2023/06/05 05:53:08;;;;;;;4.57;2.50;;;15.50;99.90;;;;;;5090279;28;20524;-49
2023/06/05 05:55:35;;;;;;;4.60;3.70;;;15.50;99.90;;;;;;5089406;28;20551;-48
2023/06/05 05:58:04;;;;;;;4.63;3.40;;;15.50;99.90;;;;;;5089784;28;20519;-48
2023/06/05 06:00:31;;;;;;;4.30;3.17;;;15.40;99.90;;;;;;5089807;28;20443;-54
2023/06/05 06:02:58;;;;;;;5.70;3.47;;;15.50;99.90;;;;;;5090696;28;20495;-49
2023/06/05 06:05:25;;;;;;;4.03;3.13;;;15.40;99.90;;;;;;5091237;28;20455;-51
2023/06/05 06:07:52;;;;;;;4.70;3.67;;;15.50;99.90;;;;;;5090731;28;21014;-49
2023/06/05 06:10:20;;;;;;;9.07;4.03;;;15.40;99.90;;;;;;5091274;28;20511;-54
2023/06/05 06:12:47;;;;;;;4.07;2.90;;;15.40;99.90;;;;;;5090973;28;20993;-49
2023/06/05 06:15:15;;;;;;;5.10;3.60;;;15.40;99.90;;;;;;5090344;28;20485;-50
2023/06/05 06:17:42;;;;;;;5.67;3.20;;;15.40;99.90;;;;;;5090905;28;20542;-49
2023/06/05 06:20:12;;;;;;;5.83;4.07;;;15.40;99.90;;;;;;5091017;28;20523;-50
2023/06/05 06:22:39;;;;;;;3.80;3.17;;;15.40;99.90;;;;;;5090991;28;20547;-49
2023/06/05 06:25:08;;;;;;;4.53;3.33;;;15.40;99.90;;;;;;5090666;28;20536;-51
2023/06/05 06:27:35;;;;;;;4.70;3.40;;;15.40;99.90;;;;;;5090295;28;20502;-49
2023/06/05 06:30:01;;;;;;;5.90;3.80;;;15.40;99.90;;;;;;5090781;28;21059;-49
2023/06/05 06:32:30;;;;;;;4.57;3.23;;;15.40;99.90;;;;;;5090866;28;20549;-53
2023/06/05 06:34:57;;;;;;;3.60;3.03;;;15.40;99.90;;;;;;5090469;28;20537;-49
2023/06/05 06:37:24;;;;;;;4.30;2.93;;;15.40;99.90;;;;;;5088619;28;20487;-49
2023/06/05 06:39:51;;;;;;;4.40;2.87;;;15.40;99.90;;;;;;5090647;28;20934;-48
2023/06/05 06:42:19;;;;;;;3.80;2.83;;;15.40;99.90;;;;;;5094602;28;20543;-49
2023/06/05 06:44:46;;;;;;;4.07;2.87;;;15.50;99.90;;;;;;5094458;28;20506;-49
2023/06/05 06:47:13;;;;;;;3.90;2.70;;;15.50;99.90;;;;;;5094463;28;20468;-49
2023/06/05 06:49:41;;;;;;;3.80;2.53;;;15.50;99.90;;;;;;5094397;28;20444;-49
2023/06/05 06:52:08;;;;;;;3.07;2.37;;;15.60;99.90;;;;;;5094442;28;20495;-49
2023/06/05 06:54:35;;;;;;;5.10;2.93;;;15.60;99.90;;;;;;5092432;28;20505;-49
2023/06/05 06:57:02;;;;;;;3.80;2.53;;;15.60;99.90;;;;;;5094314;28;20531;-49
2023/06/05 06:59:29;;;;;;;4.53;2.97;;;15.60;99.90;;;;;;5094491;28;20530;-49
2023/06/05 07:02:20;;;;;;;4.67;2.90;;;15.60;99.90;;;;;;5094204;28;20518;-51
2023/06/05 07:04:49;;;;;;;3.97;2.97;;;15.70;99.90;;;;;;5074580;28;20475;-48
2023/06/05 07:07:17;;;;;;;4.67;3.50;;;15.90;99.90;;;;;;5093838;28;20444;-48
2023/06/05 07:09:46;;;;;;;4.70;4.20;;;16.00;99.90;;;;;;5092643;28;20935;-53
2023/06/05 07:12:15;;;;;;;9.70;8.20;;;16.00;99.90;;;;;;5094099;28;20541;-50
2023/06/05 07:14:42;;;;;;;24.30;16.60;;;16.10;99.90;;;;;;5093694;28;20448;-49
2023/06/05 07:17:09;;;;;;;7.17;4.87;;;16.10;99.90;;;;;;5093581;28;20493;-49
2023/06/05 07:19:36;;;;;;;4.10;2.97;;;16.10;99.90;;;;;;5092219;28;20531;-48
2023/06/05 07:22:05;;;;;;;6.83;3.57;;;16.20;99.90;;;;;;5094049;28;20446;-50
2023/06/05 07:24:35;;;;;;;6.03;3.30;;;16.30;99.90;;;;;;5093845;28;20499;-49
2023/06/05 07:27:03;;;;;;;3.70;2.90;;;16.30;99.90;;;;;;5093608;28;20515;-50
2023/06/05 07:29:30;;;;;;;3.53;2.53;;;16.40;99.90;;;;;;5093818;28;20457;-49
2023/06/05 07:31:58;;;;;;;5.03;3.10;;;16.40;99.90;;;;;;5093663;28;20514;-54
2023/06/05 07:34:27;;;;;;;4.27;3.27;;;16.50;99.90;;;;;;5093149;28;20880;-52
2023/06/05 07:36:55;;;;;;;4.10;2.77;;;16.50;99.90;;;;;;5091917;28;20953;-51
2023/06/05 07:39:23;;;;;;;4.20;3.07;;;16.50;99.90;;;;;;5093850;28;20805;-52
2023/06/05 07:41:50;;;;;;;4.10;3.10;;;16.50;99.90;;;;;;5093396;28;20952;-49
2023/06/05 07:44:21;;;;;;;3.50;2.60;;;16.60;99.90;;;;;;5093133;28;20443;-49
2023/06/05 07:46:49;;;;;;;3.87;2.40;;;16.70;99.90;;;;;;5093564;28;20763;-49
2023/06/05 07:49:16;;;;;;;4.43;3.00;;;16.70;99.90;;;;;;5093659;28;20449;-49
2023/06/05 07:51:43;;;;;;;5.63;3.20;;;16.80;99.90;;;;;;5092410;28;20482;-49
2023/06/05 07:54:11;;;;;;;3.90;2.67;;;16.80;99.90;;;;;;5090893;28;20561;-56
2023/06/05 07:56:40;;;;;;;4.10;3.33;;;16.80;99.90;;;;;;5093074;28;20474;-53
2023/06/05 07:59:08;;;;;;;4.53;2.67;;;16.80;99.90;;;;;;5093268;28;20574;-50
2023/06/05 08:01:37;;;;;;;3.73;2.83;;;16.80;99.90;;;;;;5093067;28;20507;-50
2023/06/05 08:04:04;;;;;;;4.63;3.27;;;16.80;99.90;;;;;;5092745;28;20515;-49
2023/06/05 08:06:31;;;;;;;5.13;3.30;;;16.70;99.90;;;;;;5092727;28;20502;-53
2023/06/05 08:08:59;;;;;;;4.20;3.10;;;16.60;99.90;;;;;;5093136;28;20468;-49
2023/06/05 08:11:28;;;;;;;4.50;2.97;;;16.60;99.90;;;;;;5092824;28;20480;-49
2023/06/05 08:13:56;;;;;;;4.40;2.90;;;16.70;99.90;;;;;;5092519;28;20464;-49
2023/06/05 08:16:23;;;;;;;4.40;2.93;;;16.70;99.90;;;;;;5092567;28;20971;-49
2023/06/05 08:18:50;;;;;;;4.70;2.80;;;16.80;99.90;;;;;;5092746;28;20478;-50
2023/06/05 08:21:17;;;;;;;5.10;3.83;;;16.80;99.90;;;;;;5092605;28;20483;-49
2023/06/05 08:23:44;;;;;;;4.23;3.10;;;16.60;99.90;;;;;;5092435;28;20509;-51
2023/06/05 08:26:11;;;;;;;5.67;2.93;;;16.60;99.90;;;;;;5092939;28;20540;-49
2023/06/05 08:28:39;;;;;;;3.77;2.70;;;16.60;99.90;;;;;;5092280;28;20503;-49
2023/06/05 08:31:08;;;;;;;5.73;3.03;;;16.70;99.90;;;;;;5092459;28;20484;-52
2023/06/05 08:33:35;;;;;;;3.60;2.43;;;16.70;99.90;;;;;;5091958;28;20545;-49
2023/06/05 08:36:02;;;;;;;3.70;3.27;;;16.70;99.90;;;;;;5092405;28;20533;-49
2023/06/05 08:38:30;;;;;;;5.90;3.30;;;16.70;99.90;;;;;;5090427;28;20458;-51
2023/06/05 08:41:01;;;;;;;3.27;2.27;;;16.80;99.90;;;;;;5092565;28;20531;-52
2023/06/05 08:43:28;;;;;;;4.70;2.60;;;16.80;99.90;;;;;;5092582;28;20457;-48
2023/06/05 08:45:57;;;;;;;3.30;2.47;;;16.90;99.90;;;;;;5092453;28;20470;-49
2023/06/05 08:48:25;;;;;;;3.13;2.33;;;16.80;99.90;;;;;;5091991;28;20457;-48
2023/06/05 08:50:54;;;;;;;5.00;2.83;;;16.90;99.90;;;;;;5091919;28;21085;-49
2023/06/05 08:53:25;;;;;;;4.63;2.73;;;16.90;99.90;;;;;;5091570;28;20474;-55
2023/06/05 08:55:55;;;;;;;4.70;2.80;;;16.90;99.90;;;;;;5089988;28;20453;-49
2023/06/05 08:58:23;;;;;;;3.80;2.80;;;17.00;99.90;;;;;;5091921;28;20448;-49
2023/06/05 09:00:50;;;;;;;5.10;2.90;;;17.00;99.90;;;;;;5092441;28;20442;-51
2023/06/05 09:03:19;;;;;;;4.37;3.20;;;17.00;99.90;;;;;;5091180;28;20498;-57
2023/06/05 09:05:48;;;;;;;3.73;2.57;;;17.00;99.90;;;;;;5092021;28;20450;-48
2023/06/05 09:08:16;;;;;;;4.30;3.00;;;17.00;99.90;;;;;;5091445;28;20508;-49
2023/06/05 09:10:44;;;;;;;5.67;3.30;;;17.10;99.90;;;;;;5090787;28;20490;-49
2023/06/05 09:13:10;;;;;;;5.17;3.33;;;17.10;99.90;;;;;;5090639;28;20558;-51
2023/06/05 09:15:38;;;;;;;4.80;3.27;;;17.10;99.90;;;;;;5091483;28;20525;-49
2023/06/05 09:18:08;;;;;;;4.30;2.90;;;17.20;99.90;;;;;;5090982;28;20887;-51
2023/06/05 09:20:36;;;;;;;3.73;3.07;;;17.10;99.90;;;;;;5092063;28;20462;-50
2023/06/05 09:23:06;;;;;;;3.80;3.37;;;17.10;99.90;;;;;;5090871;28;20881;-51
2023/06/05 09:25:48;;;;;;;3.50;2.70;;;17.10;99.90;;;;;;5091884;28;20441;-50
2023/06/05 09:28:16;;;;;;;4.27;3.10;;;17.20;99.90;;;;;;5091555;28;20550;-50
2023/06/05 09:31:01;;;;;;;3.60;2.60;;;17.30;99.90;;;;;;5091764;28;20480;-50
2023/06/05 09:33:30;;;;;;;3.50;2.40;;;17.30;99.90;;;;;;5091019;28;20871;-49
2023/06/05 09:36:04;;;;;;;5.80;3.17;;;17.40;99.90;;;;;;5091670;28;20443;-53
2023/06/05 09:38:33;;;;;;;3.67;2.53;;;17.40;99.90;;;;;;5089828;28;20450;-49
2023/06/05 09:41:05;;;;;;;5.37;3.40;;;17.50;99.90;;;;;;5091428;28;20529;-49
2023/06/05 09:43:32;;;;;;;5.00;3.53;;;17.40;99.90;;;;;;5091102;28;20542;-49
2023/06/05 09:45:59;;;;;;;4.77;3.27;;;17.50;99.90;;;;;;5091491;28;21085;-49
2023/06/05 09:48:26;;;;;;;4.27;3.13;;;17.60;99.90;;;;;;5090933;28;20451;-49
2023/06/05 09:50:54;;;;;;;4.53;3.77;;;17.60;99.90;;;;;;5091070;28;20508;-49
2023/06/05 09:53:22;;;;;;;4.47;3.90;;;17.60;99.90;;;;;;5090735;28;20522;-49
2023/06/05 09:55:51;;;;;;;4.40;3.30;;;17.60;99.90;;;;;;5089133;28;20534;-49
2023/06/05 09:58:20;;;;;;;6.47;4.10;;;17.60;99.90;;;;;;5089380;28;20559;-55
2023/06/05 10:00:47;;;;;;;4.30;3.17;;;17.60;99.90;;;;;;5090007;28;20447;-50
2023/06/05 10:03:18;;;;;;;4.33;3.13;;;17.70;99.90;;;;;;5090347;28;20460;-53
2023/06/05 10:05:46;;;;;;;4.10;2.97;;;17.60;99.90;;;;;;5091212;28;20479;-51
2023/06/05 10:08:14;;;;;;;3.50;2.50;;;17.70;99.90;;;;;;5090018;28;20444;-49
2023/06/05 10:10:42;;;;;;;5.90;4.10;;;17.70;99.90;;;;;;5089641;28;20454;-51
2023/06/05 10:13:11;;;;;;;5.00;3.10;;;17.80;99.90;;;;;;5088530;28;20555;-53
2023/06/05 10:15:41;;;;;;;4.00;3.37;;;17.80;99.90;;;;;;5091513;28;20818;-48
2023/06/05 10:18:08;;;;;;;4.87;2.93;;;17.80;99.90;;;;;;5094265;28;20540;-50
2023/06/05 10:20:37;;;;;;;6.07;4.00;;;17.80;99.90;;;;;;5094398;28;20519;-49
2023/06/05 10:23:06;;;;;;;5.50;3.27;;;17.70;99.90;;;;;;5094226;28;20467;-51
2023/06/05 10:25:36;;;;;;;4.70;3.33;;;17.60;99.90;;;;;;5094514;28;20786;-49
2023/06/05 10:28:36;;;;;;;4.00;3.00;;;17.70;99.90;;;;;;5093913;28;20457;-50
2023/06/05 10:31:22;;;;;;;3.70;2.33;;;17.70;99.90;;;;;;5088022;28;20515;-53
2023/06/05 10:34:12;;;;;;;3.40;2.80;;;17.60;99.90;;;;;;5092898;28;20844;-49
2023/06/05 10:37:05;;;;;;;4.80;3.50;;;17.60;99.90;;;;;;5090393;28;20474;-50
2023/06/05 10:39:34;;;;;;;6.60;3.73;;;17.60;99.90;;;;;;5092294;28;20478;-52
2023/06/05 10:42:01;;;;;;;3.60;2.50;;;17.60;99.90;;;;;;5091079;28;20439;-49
2023/06/05 10:44:43;;;;;;;3.83;3.30;;;17.50;99.90;;;;;;5093346;28;20440;-53
2023/06/05 10:47:47;;;;;;;4.40;2.93;;;17.50;99.90;;;;;;5091660;28;20467;-51
2023/06/05 10:50:28;;;;;;;4.00;3.17;;;17.60;99.90;;;;;;5093380;28;20443;-50
2023/06/05 10:52:57;;;;;;;5.70;3.80;;;17.50;99.90;;;;;;5093543;28;21050;-52
2023/06/05 10:55:25;;;;;;;5.47;4.17;;;17.50;99.90;;;;;;5092750;28;20453;-49
2023/06/05 10:58:07;;;;;;;5.90;4.37;;;17.60;99.90;;;;;;5094048;28;20455;-50
2023/06/05 11:00:35;;;;;;;4.00;3.40;;;17.60;99.90;;;;;;5094309;28;20444;-50
2023/06/05 11:03:02;;;;;;;6.97;3.53;;;17.60;99.90;;;;;;5093683;28;20469;-51
2023/06/05 11:05:30;;;;;;;4.77;3.53;;;17.70;99.90;;;;;;5094401;28;20439;-51
2023/06/05 11:08:15;;;;;;;4.97;3.90;;;17.70;99.90;;;;;;5093107;28;20464;-49
2023/06/05 11:11:04;;;;;;;5.30;3.90;;;17.80;99.90;;;;;;5093138;28;20447;-53
2023/06/05 11:13:54;;;;;;;5.30;3.10;;;17.90;99.90;;;;;;5092589;28;20455;-51
2023/06/05 11:16:29;;;;;;;4.27;3.40;;;18.00;99.90;;;;;;5093453;28;20451;-49
2023/06/05 11:19:32;;;;;;;4.40;3.50;;;18.00;99.90;;;;;;5093627;28;20446;-50
2023/06/05 11:22:09;;;;;;;4.67;3.40;;;18.00;99.90;;;;;;5088698;28;20529;-50
2023/06/05 11:24:37;;;;;;;4.40;2.83;;;18.00;99.90;;;;;;5093554;28;20445;-52
2023/06/05 11:27:06;;;;;;;4.07;3.13;;;18.00;99.90;;;;;;5093305;28;20440;-49
2023/06/05 11:29:34;;;;;;;3.70;2.70;;;18.10;99.90;;;;;;5093949;28;20454;-50
2023/06/05 11:32:12;;;;;;;4.90;3.17;;;18.10;99.90;;;;;;5093735;28;20917;-51
2023/06/05 11:34:40;;;;;;;4.10;3.40;;;18.10;99.90;;;;;;5093314;28;20442;-49
2023/06/05 11:37:18;;;;;;;3.47;2.77;;;17.90;99.90;;;;;;5087968;28;20454;-52
2023/06/05 11:39:45;;;;;;;3.77;3.03;;;18.00;99.90;;;;;;5071959;28;20945;-52
2023/06/05 11:42:12;;;;;;;4.60;3.17;;;17.90;99.90;;;;;;5073309;28;20541;-49
2023/06/05 11:44:39;;;;;;;3.47;2.80;;;17.90;99.90;;;;;;5072699;28;20446;-50
2023/06/05 11:47:08;;;;;;;4.40;3.27;;;17.90;99.90;;;;;;5082963;28;20453;-49
2023/06/05 11:49:35;;;;;;;4.97;3.30;;;18.00;99.90;;;;;;5079518;28;20440;-51
2023/06/05 11:52:02;;;;;;;5.70;3.63;;;18.00;99.90;;;;;;5082402;28;20490;-50
2023/06/05 11:54:33;;;;;;;5.43;3.10;;;18.00;99.90;;;;;;5084585;28;20842;-49
2023/06/05 11:57:08;;;;;;;4.50;2.67;;;18.00;99.90;;;;;;5085754;28;20479;-49
2023/06/05 11:59:36;;;;;;;5.80;3.70;;;18.00;99.90;;;;;;5071632;28;20442;-49
2023/06/05 12:02:03;;;;;;;5.47;4.10;;;18.00;99.90;;;;;;5072466;28;20438;-51
2023/06/05 12:04:32;;;;;;;5.40;4.00;;;18.00;99.90;;;;;;5069946;28;20475;-53
2023/06/05 12:06:59;;;;;;;4.60;3.50;;;17.90;99.90;;;;;;5071971;28;20531;-51
2023/06/05 12:09:26;;;;;;;8.70;4.57;;;17.90;99.90;;;;;;5067327;28;20486;-49
2023/06/05 12:11:54;;;;;;;5.30;3.90;;;17.90;99.90;;;;;;5071511;28;20479;-53
2023/06/05 12:14:31;;;;;;;4.67;3.83;;;17.80;99.90;;;;;;5072166;28;20456;-54
2023/06/05 12:16:59;;;;;;;5.57;3.77;;;17.80;99.90;;;;;;5071758;28;20442;-49
2023/06/05 12:19:26;;;;;;;8.53;4.63;;;17.80;99.90;;;;;;5069420;28;21032;-49
2023/06/05 12:22:04;;;;;;;7.03;4.60;;;17.60;99.90;;;;;;5072466;28;20470;-49
2023/06/05 12:24:32;;;;;;;4.80;2.93;;;17.60;99.90;;;;;;5072207;28;20491;-50
2023/06/05 12:27:01;;;;;;;7.97;4.10;;;17.70;99.90;;;;;;5072304;28;20474;-50
2023/06/05 12:29:29;;;;;;;5.50;4.60;;;17.60;99.90;;;;;;5072262;28;20491;-50
2023/06/05 12:31:57;;;;;;;6.17;4.63;;;17.60;99.90;;;;;;5072081;28;20477;-49
2023/06/05 12:34:40;;;;;;;5.70;3.63;;;17.60;99.90;;;;;;5071561;28;20455;-49
2023/06/05 12:37:09;;;;;;;6.43;3.90;;;17.60;99.90;;;;;;5070157;28;20445;-50
2023/06/05 12:39:36;;;;;;;5.50;4.47;;;17.60;99.90;;;;;;5071197;28;21032;-51
2023/06/05 12:42:03;;;;;;;6.40;4.57;;;17.50;99.90;;;;;;5071100;28;20444;-51
2023/06/05 12:44:30;;;;;;;5.17;4.33;;;17.60;99.90;;;;;;5071589;28;20477;-50
2023/06/05 12:46:58;;;;;;;5.80;4.20;;;17.60;99.90;;;;;;5071732;28;20531;-49
2023/06/05 12:49:25;;;;;;;4.67;3.90;;;17.60;99.90;;;;;;5071714;28;20448;-49
2023/06/05 12:51:52;;;;;;;6.03;3.70;;;17.60;99.90;;;;;;5071642;28;20514;-49
2023/06/05 12:54:21;;;;;;;4.97;4.47;;;17.60;99.90;;;;;;5069196;28;20446;-51
2023/06/05 12:56:48;;;;;;;6.00;4.50;;;17.60;99.90;;;;;;5071370;28;21042;-49